Old Kilpatrick, United Kingdom
Current Conditions -  °F | °C
As of 2:50 PM on Monday 24 Nov 2014 (Local Time) from EGPF Reporting Station
Broken Clouds Broken Clouds  
Wind Chill: 42°   Ceiling: 2100
Heat Index: 46°   Visibility: 6mi
Dew Point: 41°   Wind: 9mph
Humidity: 81%   Direction: 200°SSW
Pressure: 30.24"   Gusts: NA
Location:  55.92°N, 4.46°W
Report Text: EGPF 241450Z AUTO 20008KT 9999 BKN021 08/05 Q1024
Loading
Personal Weather Stations






























Interactive Weather Map New forecast layout! Learn more

10-Day Weather Forecast

Advertisements
Track Severe Weather on mobile